createdAt,value
2019-03-22T00:02:20.472Z,25.10
2019-03-22T00:04:47.852Z,33.40
2019-03-22T00:07:15.288Z,82.73
2019-03-22T00:09:42.571Z,32.20
2019-03-22T00:12:09.949Z,50.27
2019-03-22T00:14:49.859Z,43.90
2019-03-22T00:17:17.195Z,78.33
2019-03-22T00:19:44.579Z,43.17
2019-03-22T00:22:11.906Z,67.43
2019-03-22T00:24:39.176Z,47.47
2019-03-22T00:27:16.007Z,42.23
2019-03-22T00:29:36.020Z,44.13
2019-03-22T00:32:03.288Z,43.70
2019-03-22T00:34:30.557Z,38.33
2019-03-22T00:36:58.377Z,34.87
2019-03-22T00:39:26.206Z,28.63
2019-03-22T00:41:53.492Z,31.47
2019-03-22T00:44:20.828Z,25.23
2019-03-22T00:46:48.214Z,21.17
2019-03-22T00:49:15.451Z,22.20
2019-03-22T00:51:42.799Z,25.20
2019-03-22T00:54:10.201Z,22.97
2019-03-22T00:56:37.475Z,28.43
2019-03-22T00:59:04.930Z,28.43
2019-03-22T01:01:32.306Z,33.23
2019-03-22T01:03:59.674Z,30.17
2019-03-22T01:06:27.105Z,30.57
2019-03-22T01:09:35.140Z,31.80
2019-03-22T01:12:02.961Z,34.40
2019-03-22T01:14:30.327Z,28.43
2019-03-22T01:16:57.941Z,34.10
2019-03-22T01:19:25.343Z,29.43
2019-03-22T01:21:52.900Z,26.57
2019-03-22T01:24:20.188Z,34.07
2019-03-22T01:26:47.603Z,32.30
2019-03-22T01:29:15.014Z,33.83
2019-03-22T01:31:42.286Z,30.53
2019-03-22T01:34:10.112Z,29.83
2019-03-22T01:36:37.407Z,27.67
2019-03-22T01:39:05.915Z,29.23
2019-03-22T01:41:33.237Z,27.33
2019-03-22T01:44:00.595Z,26.37
2019-03-22T01:46:28.932Z,26.83
2019-03-22T01:48:56.323Z,28.50
2019-03-22T01:51:23.715Z,31.87
2019-03-22T01:53:50.987Z,30.43
2019-03-22T01:56:18.715Z,32.77
2019-03-22T01:58:46.430Z,31.50
2019-03-22T02:01:13.992Z,31.87
2019-03-22T02:03:41.338Z,33.33
2019-03-22T02:06:08.705Z,31.90
2019-03-22T02:08:35.980Z,30.10
2019-03-22T02:11:03.382Z,32.57
2019-03-22T02:13:30.683Z,32.27
2019-03-22T02:15:58.045Z,36.47
2019-03-22T02:18:25.803Z,41.07
2019-03-22T02:20:53.170Z,42.27
2019-03-22T02:23:20.448Z,44.27
2019-03-22T02:25:47.871Z,49.33
2019-03-22T02:28:15.149Z,50.13
2019-03-22T02:30:42.807Z,49.10
2019-03-22T02:33:10.426Z,52.70
2019-03-22T02:35:37.809Z,53.47
2019-03-22T02:38:05.097Z,56.70
2019-03-22T02:40:32.486Z,53.23
2019-03-22T02:42:59.887Z,53.20
2019-03-22T02:45:27.265Z,51.27
2019-03-22T02:47:54.607Z,52.87
2019-03-22T02:50:21.911Z,54.30
2019-03-22T02:52:49.192Z,52.87
2019-03-22T02:55:16.504Z,55.47
2019-03-22T02:57:43.875Z,52.43
2019-03-22T03:00:13.553Z,55.37
2019-03-22T03:02:40.935Z,56.37
2019-03-22T03:05:32.469Z,53.53
2019-03-22T03:08:00.127Z,53.77
2019-03-22T03:10:27.469Z,53.30
2019-03-22T03:12:55.215Z,53.97
2019-03-22T03:15:22.666Z,55.17
2019-03-22T03:17:50.493Z,46.97
2019-03-22T03:20:30.475Z,51.13
2019-03-22T03:22:57.756Z,55.33
2019-03-22T03:25:25.027Z,50.57
2019-03-22T03:27:52.772Z,50.13
2019-03-22T03:30:20.167Z,48.17
2019-03-22T03:32:48.050Z,51.90
2019-03-22T03:35:15.718Z,49.77
2019-03-22T03:37:43.148Z,51.27
2019-03-22T03:40:10.840Z,51.67
2019-03-22T03:42:38.254Z,52.67
2019-03-22T03:45:06.532Z,52.43
2019-03-22T03:47:33.813Z,51.67
2019-03-22T03:50:01.558Z,52.17
2019-03-22T03:52:28.816Z,54.17
2019-03-22T03:54:56.103Z,49.87
2019-03-22T03:57:23.431Z,49.47
2019-03-22T03:59:51.000Z,54.23
2019-03-22T04:02:18.278Z,50.20
2019-03-22T04:04:45.750Z,47.20
2019-03-22T04:07:13.135Z,49.87
2019-03-22T04:09:40.416Z,50.93
2019-03-22T04:12:07.862Z,47.37
2019-03-22T04:14:35.267Z,46.17
2019-03-22T04:17:02.637Z,51.40
2019-03-22T04:19:30.287Z,50.10
2019-03-22T04:21:57.684Z,47.73
2019-03-22T04:24:25.073Z,48.93
2019-03-22T04:26:52.581Z,47.30
2019-03-22T04:29:20.083Z,53.33
2019-03-22T04:31:47.369Z,49.60
2019-03-22T04:34:15.298Z,50.87
2019-03-22T04:36:42.688Z,51.47
2019-03-22T04:39:10.342Z,48.40
2019-03-22T04:41:37.783Z,51.77
2019-03-22T04:44:12.702Z,52.43
2019-03-22T04:47:21.088Z,52.53
2019-03-22T04:50:29.285Z,49.33
2019-03-22T04:52:57.229Z,50.07
2019-03-22T04:55:25.274Z,46.40
2019-03-22T04:58:33.667Z,48.73
2019-03-22T05:01:01.706Z,48.30
2019-03-22T05:03:30.157Z,43.47
2019-03-22T05:06:18.702Z,44.53
2019-03-22T05:09:07.588Z,43.87
2019-03-22T05:11:35.568Z,41.27
2019-03-22T05:14:43.650Z,46.43
2019-03-22T05:17:51.811Z,45.47
2019-03-22T05:20:59.967Z,49.40
2019-03-22T05:26:44.789Z,43.23
2019-03-22T05:29:52.832Z,54.30
2019-03-22T05:32:20.586Z,55.40
2019-03-22T05:34:48.019Z,56.33
2019-03-22T05:37:15.269Z,58.03
2019-03-22T05:39:42.840Z,52.13
2019-03-22T05:42:10.529Z,53.60
2019-03-22T05:44:37.815Z,54.87
2019-03-22T05:47:05.167Z,54.70
2019-03-22T05:49:32.449Z,59.70
2019-03-22T05:51:59.726Z,57.10
2019-03-22T05:54:27.173Z,54.07
2019-03-22T05:56:54.700Z,59.20
2019-03-22T05:59:22.372Z,55.93
2019-03-22T06:01:49.858Z,51.63
2019-03-22T06:04:17.143Z,56.33
2019-03-22T06:06:44.887Z,52.10
2019-03-22T06:09:12.242Z,50.63
2019-03-22T06:11:39.803Z,53.70
2019-03-22T06:14:07.198Z,50.00
2019-03-22T06:16:34.652Z,49.73
2019-03-22T06:19:01.947Z,52.93
2019-03-22T06:21:29.230Z,56.20
2019-03-22T06:23:56.819Z,53.13
2019-03-22T06:26:24.260Z,53.53
2019-03-22T06:28:51.738Z,56.57
2019-03-22T06:31:20.787Z,56.37
2019-03-22T06:33:48.960Z,52.87
2019-03-22T06:36:16.595Z,59.33
2019-03-22T06:38:44.641Z,56.27
2019-03-22T06:41:12.221Z,54.47
2019-03-22T06:43:40.676Z,51.97
2019-03-22T06:46:08.361Z,55.47
2019-03-22T06:48:35.984Z,52.10
2019-03-22T06:51:03.631Z,51.37
2019-03-22T06:53:31.331Z,53.33
2019-03-22T06:55:58.977Z,49.40
2019-03-22T06:58:26.923Z,49.43
2019-03-22T07:00:54.613Z,47.97
2019-03-22T07:03:22.257Z,51.13
2019-03-22T07:05:50.240Z,50.23
2019-03-22T07:08:17.949Z,56.73
2019-03-22T07:10:45.571Z,50.17
2019-03-22T07:13:32.474Z,50.20
2019-03-22T07:16:00.081Z,50.63
2019-03-22T07:18:27.716Z,52.97
2019-03-22T07:20:55.485Z,46.67
2019-03-22T07:23:23.087Z,48.33
2019-03-22T07:25:50.770Z,47.43
2019-03-22T07:28:18.529Z,53.83
2019-03-22T07:30:46.183Z,52.93
2019-03-22T07:33:14.189Z,55.17
2019-03-22T07:35:41.930Z,62.27
2019-03-22T07:38:09.545Z,56.87
2019-03-22T07:40:37.163Z,57.80
2019-03-22T07:43:04.857Z,55.73
2019-03-22T07:45:33.000Z,59.53
2019-03-22T07:48:00.626Z,65.63
2019-03-22T07:50:28.505Z,63.27
2019-03-22T07:52:56.139Z,71.03
2019-03-22T07:55:24.183Z,73.93
2019-03-22T07:57:51.913Z,66.63
2019-03-22T08:00:30.129Z,71.93
2019-03-22T08:02:48.912Z,70.40
2019-03-22T08:05:16.597Z,69.53
2019-03-22T08:07:44.463Z,76.87
2019-03-22T08:10:11.849Z,77.27
2019-03-22T08:12:39.298Z,80.23
2019-03-22T08:15:08.329Z,81.27
2019-03-22T08:17:36.321Z,79.10
2019-03-22T08:20:04.802Z,87.73
2019-03-22T08:22:32.547Z,82.10
2019-03-22T08:25:00.404Z,70.17
2019-03-22T08:27:28.148Z,77.50
2019-03-22T08:29:55.844Z,70.17
2019-03-22T08:32:23.680Z,69.73
2019-03-22T08:34:51.874Z,69.87
2019-03-22T08:37:19.507Z,70.40
2019-03-22T08:39:49.341Z,68.43
2019-03-22T08:42:18.961Z,67.60
2019-03-22T08:44:47.197Z,71.10
2019-03-22T08:47:14.854Z,67.93
2019-03-22T08:49:43.792Z,67.97
2019-03-22T08:52:11.560Z,61.97
2019-03-22T08:54:39.311Z,68.87
2019-03-22T08:57:07.067Z,69.00
2019-03-22T08:59:53.698Z,65.23
2019-03-22T09:02:21.096Z,66.03
2019-03-22T09:04:48.780Z,65.23
2019-03-22T09:07:16.148Z,65.60
2019-03-22T09:10:04.061Z,67.60
2019-03-22T09:12:33.708Z,67.57
2019-03-22T09:15:01.233Z,68.03
2019-03-22T09:17:28.636Z,74.97
2019-03-22T09:19:56.010Z,72.07
2019-03-22T09:22:24.114Z,68.37
2019-03-22T09:24:51.985Z,61.53
2019-03-22T09:27:19.461Z,65.47
2019-03-22T09:29:47.481Z,70.03
2019-03-22T09:32:16.125Z,67.33
2019-03-22T09:34:43.436Z,113.30
2019-03-22T09:37:10.913Z,101.47
2019-03-22T09:39:38.960Z,68.13
2019-03-22T09:42:06.416Z,60.67
2019-03-22T09:44:43.162Z,55.30
2019-03-22T09:47:03.549Z,55.97
2019-03-22T09:49:31.227Z,52.53
2019-03-22T09:51:58.868Z,59.13
2019-03-22T09:54:26.601Z,60.03
2019-03-22T09:56:54.403Z,62.37
2019-03-22T09:59:22.267Z,61.13
2019-03-22T10:01:50.118Z,57.57
2019-03-22T10:04:20.537Z,67.63
2019-03-22T10:06:48.615Z,59.67
2019-03-22T10:09:16.584Z,59.13
2019-03-22T10:11:44.177Z,60.23
2019-03-22T10:14:13.257Z,62.87
2019-03-22T10:16:40.978Z,56.27
2019-03-22T10:19:08.663Z,64.93
2019-03-22T10:21:36.628Z,60.03
2019-03-22T10:24:04.351Z,57.20
2019-03-22T10:26:32.011Z,58.20
2019-03-22T10:28:59.621Z,55.60
2019-03-22T10:31:37.086Z,56.47
2019-03-22T10:33:56.624Z,57.37
2019-03-22T10:36:23.931Z,55.23
2019-03-22T10:38:51.559Z,56.73
2019-03-22T10:41:18.857Z,54.57
2019-03-22T10:43:46.293Z,49.13
2019-03-22T10:46:13.738Z,51.10
2019-03-22T10:48:41.030Z,57.03
2019-03-22T10:51:08.738Z,50.77
2019-03-22T10:53:36.252Z,56.77
2019-03-22T10:56:03.630Z,50.37
2019-03-22T10:58:31.162Z,54.50
2019-03-22T11:00:58.717Z,51.67
2019-03-22T11:03:26.086Z,50.13
2019-03-22T11:05:53.910Z,56.27
2019-03-22T11:08:21.385Z,52.50
2019-03-22T11:11:08.009Z,47.40
2019-03-22T11:13:35.504Z,53.03
2019-03-22T11:18:51.907Z,55.40
2019-03-22T11:21:19.185Z,54.73
2019-03-22T11:23:46.957Z,57.63
2019-03-22T11:26:14.809Z,51.27
2019-03-22T11:28:42.270Z,55.23
2019-03-22T11:31:09.542Z,53.17
2019-03-22T11:36:43.621Z,58.40
2019-03-22T11:39:15.583Z,55.40
2019-03-22T11:41:40.986Z,60.43
2019-03-22T11:44:09.042Z,61.37
2019-03-22T11:46:36.787Z,61.47
2019-03-22T11:49:04.427Z,59.40
2019-03-22T11:51:32.094Z,60.23
2019-03-22T11:53:59.887Z,63.87
2019-03-22T11:56:27.533Z,58.03
2019-03-22T11:58:55.580Z,61.47
2019-03-22T12:01:23.693Z,58.37
2019-03-22T12:03:51.369Z,59.03
2019-03-22T12:06:19.035Z,57.30
2019-03-22T12:08:47.280Z,51.57
2019-03-22T12:11:14.921Z,55.40
2019-03-22T12:13:42.614Z,56.30
2019-03-22T12:16:10.320Z,55.43
2019-03-22T12:18:38.340Z,53.83
2019-03-22T12:21:05.961Z,57.93
2019-03-22T12:23:34.079Z,52.40
2019-03-22T12:26:02.045Z,53.97
2019-03-22T12:28:30.105Z,53.10
2019-03-22T12:30:57.785Z,51.30
2019-03-22T12:33:25.414Z,52.47
2019-03-22T12:35:53.105Z,56.27
2019-03-22T12:38:20.859Z,57.50
2019-03-22T12:40:48.534Z,53.57
2019-03-22T12:43:16.154Z,55.17
2019-03-22T12:45:43.858Z,54.77
2019-03-22T12:48:11.494Z,57.73
2019-03-22T12:50:39.144Z,50.77
2019-03-22T12:53:07.161Z,56.63
2019-03-22T12:55:34.834Z,51.13
2019-03-22T12:58:02.878Z,55.40
2019-03-22T13:00:30.792Z,50.90
2019-03-22T13:02:58.447Z,50.73
2019-03-22T13:05:26.118Z,55.67
2019-03-22T13:07:53.891Z,51.87
2019-03-22T13:10:42.423Z,54.30
2019-03-22T13:13:09.940Z,52.37
2019-03-22T13:15:37.312Z,52.23
2019-03-22T13:18:04.692Z,51.07
2019-03-22T13:20:32.143Z,53.33
2019-03-22T13:22:59.886Z,51.70
2019-03-22T13:25:27.419Z,52.03
2019-03-22T13:27:54.807Z,48.60
2019-03-22T13:30:41.334Z,52.13
2019-03-22T13:33:08.659Z,56.27
2019-03-22T13:35:35.922Z,49.10
2019-03-22T13:38:03.473Z,52.70
2019-03-22T13:40:30.900Z,51.23
2019-03-22T13:46:06.674Z,51.90
2019-03-22T13:48:33.937Z,51.97
2019-03-22T13:51:01.426Z,55.97
2019-03-22T13:53:28.740Z,48.67
2019-03-22T13:55:56.012Z,52.10
2019-03-22T13:58:23.259Z,47.33
2019-03-22T14:00:51.057Z,47.90
2019-03-22T14:03:18.317Z,48.13
2019-03-22T14:05:45.684Z,52.00
2019-03-22T14:08:13.005Z,47.93
2019-03-22T14:10:40.253Z,48.90
2019-03-22T14:13:07.521Z,54.07
2019-03-22T14:15:35.094Z,50.47
2019-03-22T14:18:02.556Z,49.90
2019-03-22T14:20:30.112Z,49.87
2019-03-22T14:22:57.805Z,47.67
2019-03-22T14:25:25.679Z,54.50
2019-03-22T14:27:52.960Z,48.50
2019-03-22T14:30:20.273Z,51.77
2019-03-22T14:32:47.634Z,48.20
2019-03-22T14:35:15.095Z,51.13
2019-03-22T14:37:42.409Z,50.90
2019-03-22T14:40:15.454Z,48.27
2019-03-22T14:42:39.391Z,50.80
2019-03-22T14:45:07.388Z,51.43
2019-03-22T14:47:35.015Z,51.63
2019-03-22T14:50:02.481Z,52.73
2019-03-22T14:52:29.795Z,49.27
2019-03-22T14:54:57.056Z,52.47
2019-03-22T14:57:24.359Z,46.43
2019-03-22T14:59:58.777Z,48.60
2019-03-22T15:02:20.929Z,50.90
2019-03-22T15:04:48.291Z,48.37
2019-03-22T15:07:19.960Z,48.27
2019-03-22T15:09:46.280Z,46.70
2019-03-22T15:12:14.243Z,46.13
2019-03-22T15:15:01.732Z,49.17
2019-03-22T15:17:48.689Z,48.43
2019-03-22T15:20:35.647Z,47.90
2019-03-22T15:23:22.645Z,46.73
2019-03-22T15:26:09.953Z,47.70
2019-03-22T15:28:56.866Z,48.00
2019-03-22T15:31:44.192Z,47.13
2019-03-22T15:34:31.390Z,45.37
2019-03-22T15:37:18.545Z,42.30
2019-03-22T15:40:05.800Z,44.37
2019-03-22T15:42:33.338Z,40.80
2019-03-22T15:45:00.714Z,38.27
2019-03-22T15:47:28.479Z,39.10
2019-03-22T15:49:55.891Z,37.90
2019-03-22T15:52:23.149Z,39.87
2019-03-22T15:54:50.406Z,41.37
2019-03-22T15:57:18.120Z,37.67
2019-03-22T15:59:45.523Z,41.73
2019-03-22T16:02:12.886Z,35.43
2019-03-22T16:04:40.209Z,37.40
2019-03-22T16:07:07.477Z,35.73
2019-03-22T16:09:34.733Z,36.83
2019-03-22T16:12:02.134Z,38.13
2019-03-22T16:14:29.395Z,35.10
2019-03-22T16:16:56.650Z,40.27
2019-03-22T16:19:24.260Z,43.50
2019-03-22T16:21:51.845Z,43.67
2019-03-22T16:24:19.235Z,41.73
2019-03-22T16:26:46.886Z,43.60
2019-03-22T16:29:14.136Z,44.30
2019-03-22T16:31:41.742Z,38.67
2019-03-22T16:34:09.161Z,39.73
2019-03-22T16:36:36.419Z,43.70
2019-03-22T16:39:44.989Z,41.23
2019-03-22T16:42:12.241Z,41.77
2019-03-22T16:44:39.554Z,43.67
2019-03-22T16:47:06.870Z,44.23
2019-03-22T16:49:34.047Z,46.70
2019-03-22T16:52:01.286Z,52.57
2019-03-22T16:54:28.730Z,46.43
2019-03-22T16:56:55.985Z,43.00
2019-03-22T16:59:23.243Z,42.67
2019-03-22T17:01:50.589Z,44.10
2019-03-22T17:04:18.126Z,46.90
2019-03-22T17:06:45.664Z,51.67
2019-03-22T17:09:13.294Z,46.73
2019-03-22T17:11:40.576Z,47.70
2019-03-22T17:14:07.833Z,48.33
2019-03-22T17:16:35.416Z,45.63
2019-03-22T17:19:02.787Z,48.27
2019-03-22T17:21:30.504Z,44.07
2019-03-22T17:23:58.111Z,52.37
2019-03-22T17:26:25.361Z,50.90
2019-03-22T17:28:52.713Z,50.40
2019-03-22T17:31:20.024Z,48.13
2019-03-22T17:33:47.786Z,50.03
2019-03-22T17:36:15.314Z,50.00
2019-03-22T17:39:02.264Z,46.80
2019-03-22T17:41:29.515Z,49.67
2019-03-22T17:43:57.168Z,50.13
2019-03-22T17:46:24.609Z,49.23
2019-03-22T17:48:52.178Z,54.17
2019-03-22T17:51:19.439Z,47.90
2019-03-22T17:53:47.197Z,50.17
2019-03-22T17:56:14.460Z,45.43
2019-03-22T17:58:41.718Z,51.00
2019-03-22T18:01:09.145Z,51.40
2019-03-22T18:03:36.430Z,43.87
2019-03-22T18:06:03.786Z,52.50
2019-03-22T18:08:31.116Z,47.40
2019-03-22T18:10:58.683Z,48.30
2019-03-22T18:13:26.064Z,56.50
2019-03-22T18:15:53.672Z,69.30
2019-03-22T18:18:20.942Z,66.77
2019-03-22T18:20:48.213Z,70.00
2019-03-22T18:23:15.538Z,68.10
2019-03-22T18:25:42.808Z,71.23
2019-03-22T18:28:10.084Z,60.97
2019-03-22T18:30:38.031Z,59.30
2019-03-22T18:33:05.601Z,59.80
2019-03-22T18:35:32.847Z,60.67
2019-03-22T18:38:00.495Z,60.70
2019-03-22T18:40:28.157Z,64.17
2019-03-22T18:42:55.719Z,64.17
2019-03-22T18:45:23.332Z,68.23
2019-03-22T18:48:03.159Z,67.27
2019-03-22T18:50:30.531Z,83.27
2019-03-22T18:52:58.115Z,79.43
2019-03-22T18:55:25.701Z,86.03
2019-03-22T18:57:53.021Z,86.43
2019-03-22T19:00:20.288Z,85.83
2019-03-22T19:02:47.554Z,78.60
2019-03-22T19:05:14.970Z,79.87
2019-03-22T19:07:42.645Z,87.47
2019-03-22T19:10:10.231Z,90.30
2019-03-22T19:12:37.650Z,83.00
2019-03-22T19:15:06.204Z,82.93
2019-03-22T19:17:33.598Z,83.90
2019-03-22T19:20:00.911Z,81.57
2019-03-22T19:22:28.173Z,92.80
2019-03-22T19:24:55.433Z,88.20
2019-03-22T19:27:22.746Z,86.70
2019-03-22T19:29:50.630Z,88.23
2019-03-22T19:32:18.206Z,97.30
2019-03-22T19:34:53.974Z,94.13
2019-03-22T19:37:15.230Z,89.30
2019-03-22T19:39:43.282Z,89.97
2019-03-22T19:42:10.972Z,93.67
2019-03-22T19:44:38.628Z,91.80
2019-03-22T19:47:06.286Z,97.27
2019-03-22T19:49:34.046Z,94.83
2019-03-22T19:52:02.035Z,96.20
2019-03-22T19:54:30.026Z,103.23
2019-03-22T19:56:57.703Z,97.50
2019-03-22T19:59:25.359Z,103.27
2019-03-22T20:01:52.929Z,101.40
2019-03-22T20:04:20.595Z,98.20
2019-03-22T20:06:48.232Z,118.37
2019-03-22T20:09:16.267Z,105.47
2019-03-22T20:11:43.915Z,100.50
2019-03-22T20:14:11.898Z,101.93
2019-03-22T20:16:39.523Z,99.20
2019-03-22T20:19:07.370Z,96.70
2019-03-22T20:21:34.991Z,102.13
2019-03-22T20:24:02.614Z,100.97
2019-03-22T20:26:30.294Z,93.57
2019-03-22T20:28:57.945Z,94.60
2019-03-22T20:31:25.873Z,96.43
2019-03-22T20:33:54.329Z,104.67
2019-03-22T20:36:21.979Z,92.57
2019-03-22T20:38:50.676Z,99.73
2019-03-22T20:41:18.355Z,102.27
2019-03-22T20:43:46.400Z,96.20
2019-03-22T20:46:14.020Z,97.83
2019-03-22T20:48:42.142Z,102.90
2019-03-22T20:51:09.836Z,111.00
2019-03-22T20:53:37.871Z,112.87
2019-03-22T20:56:05.944Z,108.20
2019-03-22T20:58:33.562Z,111.57
2019-03-22T21:01:01.194Z,113.87
2019-03-22T21:03:28.959Z,109.40
2019-03-22T21:05:56.993Z,108.70
2019-03-22T21:08:25.064Z,108.80
2019-03-22T21:10:52.753Z,109.60
2019-03-22T21:13:20.425Z,106.63
2019-03-22T21:15:48.052Z,103.63
2019-03-22T21:18:16.116Z,101.73
2019-03-22T21:20:44.081Z,105.40
2019-03-22T21:23:11.696Z,111.33
2019-03-22T21:25:39.411Z,98.63
2019-03-22T21:28:07.050Z,105.80
2019-03-22T21:30:35.056Z,104.50
2019-03-22T21:33:02.792Z,89.63
2019-03-22T21:35:37.203Z,98.03
2019-03-22T21:38:10.096Z,105.67
2019-03-22T21:40:29.425Z,104.27
2019-03-22T21:42:56.702Z,106.93
2019-03-22T21:45:25.086Z,106.70
2019-03-22T21:47:52.634Z,93.77
2019-03-22T21:50:20.272Z,101.53
2019-03-22T21:52:47.679Z,106.53
2019-03-22T21:55:15.014Z,109.20
2019-03-22T21:57:42.260Z,114.37
2019-03-22T22:00:09.727Z,118.10
2019-03-22T22:02:37.249Z,113.13
2019-03-22T22:05:05.053Z,115.13
2019-03-22T22:07:32.321Z,106.70
2019-03-22T22:10:00.251Z,118.57
2019-03-22T22:12:29.780Z,115.43
2019-03-22T22:14:56.744Z,113.90
2019-03-22T22:17:24.061Z,120.40
2019-03-22T22:19:51.322Z,119.60
2019-03-22T22:22:18.959Z,121.87
2019-03-22T22:24:46.625Z,129.57
2019-03-22T22:27:14.417Z,123.97
2019-03-22T22:29:43.074Z,118.80
2019-03-22T22:32:10.449Z,131.43
2019-03-22T22:34:38.394Z,124.73
2019-03-22T22:37:05.673Z,126.87
2019-03-22T22:39:33.438Z,124.70
2019-03-22T22:42:01.017Z,128.27
2019-03-22T22:44:28.544Z,123.73
2019-03-22T22:46:56.287Z,126.57
2019-03-22T22:49:23.593Z,148.93
2019-03-22T22:51:50.857Z,141.53
2019-03-22T22:54:18.555Z,141.33
2019-03-22T22:56:45.814Z,127.07
2019-03-22T22:59:13.307Z,152.53
2019-03-22T23:01:40.800Z,116.27
2019-03-22T23:04:08.662Z,116.00
2019-03-22T23:06:36.766Z,119.90
2019-03-22T23:09:45.106Z,115.37
2019-03-22T23:12:12.684Z,147.50
2019-03-22T23:14:40.380Z,146.40
2019-03-22T23:17:08.009Z,135.60
2019-03-22T23:19:35.393Z,133.73
2019-03-22T23:22:02.662Z,133.80
2019-03-22T23:24:30.540Z,141.57
2019-03-22T23:26:57.838Z,132.07
2019-03-22T23:29:25.067Z,150.40
2019-03-22T23:31:52.464Z,148.00
2019-03-22T23:34:19.726Z,162.57
2019-03-22T23:36:46.989Z,162.60
2019-03-22T23:39:14.340Z,145.63
2019-03-22T23:41:41.946Z,154.87
2019-03-22T23:44:09.491Z,159.70
2019-03-22T23:46:37.299Z,169.00
2019-03-22T23:49:04.659Z,155.27
2019-03-22T23:51:32.160Z,163.77
2019-03-22T23:53:59.664Z,185.37
2019-03-22T23:56:26.968Z,172.90
2019-03-22T23:58:54.610Z,157.50
